Time;durP1;ratioP1;P1;durP2;ratioP2;P2;SDS_P1;SDS_P2;PMS_P1;PMS_P2;Temp;Humidity;BMP_temperature;BMP_pressure;BME280_temperature;BME280_humidity;BME280_pressure;Samples;Min_cycle;Max_cycle;Signal;HPM_P1;HPM_P2
2022/03/09 00:00:07;;;;;;;13.82;12.50;;;;;;;;;;4972421;28;20495;-67
2022/03/09 01:24:26;;;;;;;13.45;12.05;;;;;;;;;;4964692;28;20185;-66
2022/03/09 01:26:52;;;;;;;19.08;13.43;;;;;;;;;;4970426;28;20121;-66
2022/03/09 01:29:18;;;;;;;14.85;13.38;;;;;;;;;;4970226;28;20165;-66
2022/03/09 01:31:43;;;;;;;15.02;13.48;;;;;;;;;;4973674;28;20474;-66
2022/03/09 01:34:09;;;;;;;17.45;13.43;;;;;;;;;;4972506;28;20035;-66
2022/03/09 01:36:34;;;;;;;16.33;13.25;;;;;;;;;;4970182;28;20045;-66
2022/03/09 01:39:00;;;;;;;18.17;13.70;;;;;;;;;;4972352;28;20661;-66
2022/03/09 01:41:25;;;;;;;13.63;12.32;;;;;;;;;;4969513;28;20030;-66
2022/03/09 01:44:06;;;;;;;18.02;13.85;;;;;;;;;;4977383;28;20050;-66
2022/03/09 01:46:32;;;;;;;18.17;14.27;;;;;;;;;;4972541;28;20045;-65
2022/03/09 01:48:58;;;;;;;16.95;13.25;;;;;;;;;;4968996;28;20026;-67
2022/03/09 01:51:24;;;;;;;15.20;13.48;;;;;;;;;;4968658;28;20328;-67
2022/03/09 01:53:49;;;;;;;16.23;13.68;;;;;;;;;;4969370;28;20034;-67
2022/03/09 01:56:16;;;;;;;15.25;13.52;;;;;;;;;;4973850;28;20378;-67
2022/03/09 01:58:42;;;;;;;17.33;14.07;;;;;;;;;;4977282;28;20023;-67
2022/03/09 02:01:08;;;;;;;19.55;15.32;;;;;;;;;;4976162;28;20296;-67
2022/03/09 02:03:35;;;;;;;17.80;15.13;;;;;;;;;;4975217;28;20065;-67
2022/03/09 02:06:01;;;;;;;16.15;14.52;;;;;;;;;;4974151;28;20042;-67
2022/03/09 02:11:11;;;;;;;17.13;13.15;;;;;;;;;;4968775;28;20042;-67
2022/03/09 02:13:38;;;;;;;15.55;13.13;;;;;;;;;;4975466;28;20043;-67
2022/03/09 02:16:04;;;;;;;16.05;13.20;;;;;;;;;;4966656;28;20038;-67
2022/03/09 02:18:30;;;;;;;18.13;13.48;;;;;;;;;;4973749;28;20062;-67
2022/03/09 02:20:58;;;;;;;13.63;12.07;;;;;;;;;;4969338;28;20513;-67
2022/03/09 02:23:24;;;;;;;13.80;12.40;;;;;;;;;;4970059;28;20058;-67
2022/03/09 02:25:49;;;;;;;14.88;13.18;;;;;;;;;;4967735;28;20035;-67
2022/03/09 02:28:15;;;;;;;19.63;13.95;;;;;;;;;;4973494;28;20053;-67
2022/03/09 02:30:41;;;;;;;16.85;15.10;;;;;;;;;;4953379;28;20039;-67
2022/03/09 02:33:06;;;;;;;25.92;13.95;;;;;;;;;;4979952;28;20053;-67
2022/03/09 02:35:32;;;;;;;16.73;14.52;;;;;;;;;;4972292;28;20035;-67
2022/03/09 02:37:57;;;;;;;19.85;14.98;;;;;;;;;;4972792;28;20121;-67
2022/03/09 02:40:23;;;;;;;15.80;14.10;;;;;;;;;;4971407;28;20027;-67
2022/03/09 02:42:49;;;;;;;15.43;13.38;;;;;;;;;;4972603;28;20050;-67
2022/03/09 02:45:14;;;;;;;19.38;13.75;;;;;;;;;;4974314;28;20046;-67
2022/03/09 02:47:45;;;;;;;14.85;13.30;;;;;;;;;;4968824;28;20037;-67
2022/03/09 02:50:12;;;;;;;14.52;13.00;;;;;;;;;;4967904;28;20054;-67
2022/03/09 02:52:39;;;;;;;14.40;12.90;;;;;;;;;;4969526;28;20503;-66
2022/03/09 02:55:06;;;;;;;16.15;14.30;;;;;;;;;;4968577;28;20035;-67
2022/03/09 02:57:32;;;;;;;14.02;12.63;;;;;;;;;;4968366;28;20387;-67
2022/03/09 02:59:58;;;;;;;16.50;13.80;;;;;;;;;;4973408;28;20088;-67
2022/03/09 03:02:23;;;;;;;17.27;14.32;;;;;;;;;;4977430;28;20034;-67
2022/03/09 03:04:49;;;;;;;19.38;14.75;;;;;;;;;;4983696;28;20053;-67
2022/03/09 03:07:14;;;;;;;16.90;15.07;;;;;;;;;;4974964;28;20116;-66
2022/03/09 03:09:40;;;;;;;17.77;14.65;;;;;;;;;;4977892;28;20086;-66
2022/03/09 03:12:06;;;;;;;16.10;14.20;;;;;;;;;;4972779;28;20045;-66
2022/03/09 03:14:31;;;;;;;18.38;15.43;;;;;;;;;;4962642;28;20042;-67
2022/03/09 03:16:57;;;;;;;11.45;10.60;;;;;;;;;;4973707;28;20049;-65
2022/03/09 03:19:23;;;;;;;12.80;11.55;;;;;;;;;;4965587;28;20576;-66
2022/03/09 03:21:48;;;;;;;18.63;14.45;;;;;;;;;;4965053;28;20034;-66
2022/03/09 03:24:14;;;;;;;21.52;15.00;;;;;;;;;;4966240;28;20038;-67
2022/03/09 03:26:39;;;;;;;11.93;10.98;;;;;;;;;;4970117;28;20096;-66
2022/03/09 03:29:05;;;;;;;17.60;13.82;;;;;;;;;;4976721;28;20073;-66
2022/03/09 03:31:31;;;;;;;20.08;14.23;;;;;;;;;;4977044;28;20085;-66
2022/03/09 03:33:57;;;;;;;16.15;14.07;;;;;;;;;;4973572;28;20474;-66
2022/03/09 03:36:23;;;;;;;22.42;14.38;;;;;;;;;;4975848;28;20042;-66
2022/03/09 03:38:49;;;;;;;16.27;14.18;;;;;;;;;;4972666;28;20046;-66
2022/03/09 03:41:14;;;;;;;17.10;13.80;;;;;;;;;;4976945;28;20035;-67
2022/03/09 03:43:40;;;;;;;16.73;13.55;;;;;;;;;;4974123;28;20030;-66
2022/03/09 03:46:05;;;;;;;13.60;12.35;;;;;;;;;;4971915;28;20110;-66
2022/03/09 03:48:31;;;;;;;16.27;14.07;;;;;;;;;;4980420;28;20035;-67
2022/03/09 03:50:57;;;;;;;15.00;13.23;;;;;;;;;;4970338;28;20046;-66
2022/03/09 03:53:22;;;;;;;14.45;13.05;;;;;;;;;;4974479;28;20039;-66
2022/03/09 03:55:48;;;;;;;19.23;13.60;;;;;;;;;;4982292;28;20035;-66
2022/03/09 03:58:14;;;;;;;13.10;11.95;;;;;;;;;;4968209;28;20031;-66
2022/03/09 04:00:39;;;;;;;21.83;14.07;;;;;;;;;;4974892;28;20042;-66
2022/03/09 04:03:06;;;;;;;21.85;14.25;;;;;;;;;;4971294;28;20482;-67
2022/03/09 04:05:32;;;;;;;16.67;14.05;;;;;;;;;;4968286;28;20027;-67
2022/03/09 04:07:57;;;;;;;16.10;13.73;;;;;;;;;;4998865;22;20070;-74
2022/03/09 04:10:24;;;;;;;18.40;14.55;;;;;;;;;;5041420;28;20042;-72
2022/03/09 04:12:50;;;;;;;17.35;14.77;;;;;;;;;;5049079;28;20094;-73
2022/03/09 04:15:15;;;;;;;16.75;14.23;;;;;;;;;;5044454;28;20112;-73
2022/03/09 04:17:43;;;;;;;16.50;13.68;;;;;;;;;;5048444;28;20041;-72
2022/03/09 04:20:10;;;;;;;12.38;11.48;;;;;;;;;;5050483;28;20505;-71
2022/03/09 04:22:38;;;;;;;18.05;15.40;;;;;;;;;;5049803;28;20033;-73
2022/03/09 04:25:04;;;;;;;15.68;13.70;;;;;;;;;;5049003;28;20501;-74
2022/03/09 04:27:30;;;;;;;15.90;13.70;;;;;;;;;;5048080;28;20036;-73
2022/03/09 04:29:55;;;;;;;15.32;13.10;;;;;;;;;;5041782;28;20032;-71
2022/03/09 04:32:21;;;;;;;12.20;11.18;;;;;;;;;;5014753;28;20491;-71
2022/03/09 04:34:46;;;;;;;13.15;11.57;;;;;;;;;;5044234;28;20144;-73
2022/03/09 04:37:12;;;;;;;15.82;13.73;;;;;;;;;;5034144;28;20047;-71
2022/03/09 04:39:38;;;;;;;27.45;14.50;;;;;;;;;;5047845;28;20526;-71
2022/03/09 04:42:03;;;;;;;15.15;13.68;;;;;;;;;;5042344;28;20036;-71
2022/03/09 04:44:29;;;;;;;13.82;12.52;;;;;;;;;;5044210;28;20037;-72
2022/03/09 04:46:55;;;;;;;15.57;13.90;;;;;;;;;;5033554;28;20055;-72
2022/03/09 04:49:20;;;;;;;17.05;13.88;;;;;;;;;;5050206;28;20407;-73
2022/03/09 04:51:46;;;;;;;15.27;13.73;;;;;;;;;;5046957;28;20052;-73
2022/03/09 04:54:12;;;;;;;14.63;13.15;;;;;;;;;;5053841;28;20476;-71
2022/03/09 04:56:38;;;;;;;14.23;13.05;;;;;;;;;;5033402;28;20040;-72
2022/03/09 04:59:04;;;;;;;17.35;14.82;;;;;;;;;;5047129;28;20037;-73
2022/03/09 05:01:30;;;;;;;18.15;13.60;;;;;;;;;;5027656;28;20048;-72
2022/03/09 05:03:56;;;;;;;16.00;14.20;;;;;;;;;;5049251;28;20506;-71
2022/03/09 05:06:21;;;;;;;19.02;13.75;;;;;;;;;;5037357;28;20030;-72
2022/03/09 05:08:47;;;;;;;14.38;12.82;;;;;;;;;;5047568;28;20124;-73
2022/03/09 05:11:13;;;;;;;13.85;12.38;;;;;;;;;;5040756;28;20051;-73
2022/03/09 05:13:38;;;;;;;12.27;11.25;;;;;;;;;;5053354;28;20044;-71
2022/03/09 05:16:05;;;;;;;15.75;12.02;;;;;;;;;;5041833;28;20025;-71
2022/03/09 05:18:32;;;;;;;16.35;12.95;;;;;;;;;;5045353;28;20092;-72
2022/03/09 05:20:57;;;;;;;16.08;13.45;;;;;;;;;;5039168;28;20029;-72
2022/03/09 05:23:23;;;;;;;13.40;12.20;;;;;;;;;;5045311;28;20468;-72
2022/03/09 05:25:49;;;;;;;16.23;13.23;;;;;;;;;;5047962;28;20057;-71
2022/03/09 05:28:14;;;;;;;15.73;14.02;;;;;;;;;;5045745;28;20400;-71
2022/03/09 05:30:40;;;;;;;14.57;13.05;;;;;;;;;;5042816;28;20502;-74
2022/03/09 05:33:06;;;;;;;17.67;14.02;;;;;;;;;;5046832;28;20043;-72
2022/03/09 05:35:31;;;;;;;17.33;14.38;;;;;;;;;;5043869;28;20036;-71
2022/03/09 05:37:57;;;;;;;17.83;13.57;;;;;;;;;;5049298;28;20106;-71
2022/03/09 05:40:24;;;;;;;19.38;13.57;;;;;;;;;;5053179;28;20067;-72
2022/03/09 05:42:50;;;;;;;19.48;13.02;;;;;;;;;;5044556;28;20029;-72
2022/03/09 05:45:16;;;;;;;13.27;12.02;;;;;;;;;;5012121;28;20037;-72
2022/03/09 05:47:42;;;;;;;14.85;13.10;;;;;;;;;;5030587;28;20343;-72
2022/03/09 05:50:08;;;;;;;14.85;13.25;;;;;;;;;;5042122;28;20032;-72
2022/03/09 05:52:34;;;;;;;12.63;11.52;;;;;;;;;;5049440;28;20072;-71
2022/03/09 05:54:59;;;;;;;15.32;13.80;;;;;;;;;;5045590;28;20067;-72
2022/03/09 05:57:25;;;;;;;14.63;13.23;;;;;;;;;;5045797;28;20049;-73
2022/03/09 05:59:50;;;;;;;14.25;12.75;;;;;;;;;;5046299;28;20036;-71
2022/03/09 06:02:16;;;;;;;13.05;11.88;;;;;;;;;;5049168;28;20041;-71
2022/03/09 06:04:45;;;;;;;12.82;11.73;;;;;;;;;;5048674;28;20056;-72
2022/03/09 06:07:11;;;;;;;13.70;12.48;;;;;;;;;;5046669;28;20036;-72
2022/03/09 06:09:37;;;;;;;17.08;14.95;;;;;;;;;;5047448;28;20094;-72
2022/03/09 06:12:03;;;;;;;14.60;13.20;;;;;;;;;;5058898;28;20468;-72
2022/03/09 06:14:28;;;;;;;14.73;13.23;;;;;;;;;;5041049;28;20434;-72
2022/03/09 06:16:54;;;;;;;14.00;12.52;;;;;;;;;;5047952;28;20082;-71
2022/03/09 06:19:19;;;;;;;26.05;14.80;;;;;;;;;;5046588;28;20035;-71
2022/03/09 06:21:45;;;;;;;16.15;13.45;;;;;;;;;;5049166;28;20067;-72
2022/03/09 06:24:12;;;;;;;17.63;14.02;;;;;;;;;;5049495;28;20176;-71
2022/03/09 06:26:38;;;;;;;18.00;13.85;;;;;;;;;;5047483;28;20028;-72
2022/03/09 06:29:05;;;;;;;15.82;14.05;;;;;;;;;;5010353;28;20037;-72
2022/03/09 06:31:31;;;;;;;15.93;14.32;;;;;;;;;;5051960;28;20043;-74
2022/03/09 06:33:56;;;;;;;15.77;14.18;;;;;;;;;;5050670;28;20040;-73
2022/03/09 06:36:24;;;;;;;17.30;13.95;;;;;;;;;;5047523;28;20555;-72
2022/03/09 06:38:50;;;;;;;16.42;13.35;;;;;;;;;;5047525;28;20041;-72
2022/03/09 06:41:16;;;;;;;13.45;12.15;;;;;;;;;;5049765;28;20167;-71
2022/03/09 06:43:41;;;;;;;13.68;12.45;;;;;;;;;;5030975;28;20043;-72
2022/03/09 06:46:07;;;;;;;15.32;12.93;;;;;;;;;;5047492;28;20470;-71
2022/03/09 06:48:33;;;;;;;16.48;15.00;;;;;;;;;;5049586;28;20033;-73
2022/03/09 06:50:58;;;;;;;14.20;12.95;;;;;;;;;;5048009;28;20581;-71
2022/03/09 06:53:25;;;;;;;19.48;15.68;;;;;;;;;;5048066;28;20033;-72
2022/03/09 06:55:52;;;;;;;19.00;16.27;;;;;;;;;;5047130;28;20029;-71
2022/03/09 06:58:19;;;;;;;17.45;15.57;;;;;;;;;;5057059;28;20156;-71
2022/03/09 07:00:45;;;;;;;19.38;15.55;;;;;;;;;;5033423;28;20116;-72
2022/03/09 07:03:10;;;;;;;12.88;11.88;;;;;;;;;;5048192;28;20116;-73
2022/03/09 07:05:36;;;;;;;15.50;13.82;;;;;;;;;;5047880;28;20124;-71
2022/03/09 07:08:01;;;;;;;16.75;15.02;;;;;;;;;;5052539;28;20063;-74
2022/03/09 07:10:27;;;;;;;16.15;14.52;;;;;;;;;;5030139;28;20462;-72
2022/03/09 07:12:53;;;;;;;22.58;15.70;;;;;;;;;;5032121;28;20819;-72
2022/03/09 07:15:19;;;;;;;21.17;15.85;;;;;;;;;;5049189;28;20102;-71
2022/03/09 07:17:47;;;;;;;20.88;15.63;;;;;;;;;;5047797;28;20504;-72
2022/03/09 07:20:13;;;;;;;13.52;12.25;;;;;;;;;;5042196;28;20088;-72
2022/03/09 07:22:40;;;;;;;23.13;15.30;;;;;;;;;;5049731;28;20427;-75
2022/03/09 07:25:06;;;;;;;17.15;14.65;;;;;;;;;;5047849;28;20507;-72
2022/03/09 07:27:32;;;;;;;18.75;15.70;;;;;;;;;;5047842;28;20041;-74
2022/03/09 07:29:58;;;;;;;18.33;14.80;;;;;;;;;;5033591;28;20055;-72
2022/03/09 07:32:24;;;;;;;20.10;15.05;;;;;;;;;;5054713;28;20033;-72
2022/03/09 07:34:49;;;;;;;19.35;14.30;;;;;;;;;;5047827;28;20037;-74
2022/03/09 07:37:15;;;;;;;15.18;13.57;;;;;;;;;;5048725;28;20123;-73
2022/03/09 07:39:41;;;;;;;15.40;13.73;;;;;;;;;;5052127;28;20132;-75
2022/03/09 07:42:06;;;;;;;17.08;15.27;;;;;;;;;;5044060;28;20097;-72
2022/03/09 07:44:32;;;;;;;21.75;15.65;;;;;;;;;;5049213;28;20102;-71
2022/03/09 07:46:58;;;;;;;26.05;17.17;;;;;;;;;;5046279;28;20065;-71
2022/03/09 07:49:24;;;;;;;19.15;16.08;;;;;;;;;;5048172;28;20420;-71
2022/03/09 07:51:50;;;;;;;20.15;17.95;;;;;;;;;;5051927;28;20033;-72
2022/03/09 07:54:16;;;;;;;19.90;17.45;;;;;;;;;;5050736;28;20044;-72
2022/03/09 07:56:43;;;;;;;19.17;17.20;;;;;;;;;;5050878;28;20384;-72
2022/03/09 07:59:11;;;;;;;18.55;16.85;;;;;;;;;;5061665;28;20032;-71
2022/03/09 08:01:40;;;;;;;20.45;17.73;;;;;;;;;;5050653;28;20041;-73
2022/03/09 08:04:07;;;;;;;19.58;17.58;;;;;;;;;;5049671;28;20127;-72
2022/03/09 08:06:34;;;;;;;19.10;17.02;;;;;;;;;;5058192;28;20089;-72
2022/03/09 08:08:59;;;;;;;19.25;17.17;;;;;;;;;;5035979;28;20521;-73
2022/03/09 08:11:25;;;;;;;20.58;17.88;;;;;;;;;;5050364;28;20092;-72
2022/03/09 08:13:51;;;;;;;18.98;17.08;;;;;;;;;;5052659;28;20385;-72
2022/03/09 08:16:16;;;;;;;23.52;18.27;;;;;;;;;;5050163;28;20029;-73
2022/03/09 08:18:42;;;;;;;22.30;18.00;;;;;;;;;;5055311;28;20080;-73
2022/03/09 08:21:08;;;;;;;20.17;18.02;;;;;;;;;;5048958;28;20036;-73
2022/03/09 08:23:33;;;;;;;18.90;17.17;;;;;;;;;;5048777;28;20037;-73
2022/03/09 08:25:59;;;;;;;20.02;17.95;;;;;;;;;;5058999;28;20066;-74
2022/03/09 08:28:25;;;;;;;19.13;17.23;;;;;;;;;;5052348;28;20515;-74
2022/03/09 08:30:52;;;;;;;19.75;17.85;;;;;;;;;;5042993;28;20549;-75
2022/03/09 08:33:17;;;;;;;19.05;17.02;;;;;;;;;;5046823;28;20111;-73
2022/03/09 08:35:43;;;;;;;17.80;16.05;;;;;;;;;;5056761;28;20112;-74
2022/03/09 08:38:08;;;;;;;19.27;16.30;;;;;;;;;;5049514;28;20048;-74
2022/03/09 08:40:34;;;;;;;18.33;15.93;;;;;;;;;;5048295;28;20028;-74
2022/03/09 08:43:00;;;;;;;18.35;16.65;;;;;;;;;;5045174;28;20082;-76
2022/03/09 08:45:25;;;;;;;18.30;16.48;;;;;;;;;;5057486;28;20036;-75
2022/03/09 08:47:51;;;;;;;18.85;16.90;;;;;;;;;;5050104;28;20399;-75
2022/03/09 08:50:16;;;;;;;17.73;16.13;;;;;;;;;;5050527;28;20028;-75
2022/03/09 08:52:42;;;;;;;19.13;17.25;;;;;;;;;;5037563;28;20037;-76
2022/03/09 08:55:08;;;;;;;18.08;16.20;;;;;;;;;;5049341;28;20125;-75
2022/03/09 08:57:34;;;;;;;19.13;17.10;;;;;;;;;;5049801;28;20037;-75
2022/03/09 09:00:03;;;;;;;18.13;16.33;;;;;;;;;;5048404;28;20044;-76
2022/03/09 09:02:30;;;;;;;19.50;17.42;;;;;;;;;;5060869;28;20032;-77
2022/03/09 09:04:56;;;;;;;18.42;16.23;;;;;;;;;;5052370;28;20264;-75
2022/03/09 09:07:22;;;;;;;18.90;16.90;;;;;;;;;;5049224;28;20610;-75
2022/03/09 09:09:48;;;;;;;20.20;18.00;;;;;;;;;;5032127;28;20036;-76
2022/03/09 09:12:13;;;;;;;20.00;17.90;;;;;;;;;;5062826;28;20032;-76
2022/03/09 09:14:39;;;;;;;19.90;17.10;;;;;;;;;;5049036;28;20032;-76
2022/03/09 09:17:05;;;;;;;19.25;17.42;;;;;;;;;;5050878;28;20128;-76
2022/03/09 09:19:31;;;;;;;17.45;15.88;;;;;;;;;;5053959;28;20025;-79
2022/03/09 09:21:57;;;;;;;17.38;15.93;;;;;;;;;;5048687;28;20032;-76
2022/03/09 09:24:22;;;;;;;20.23;18.10;;;;;;;;;;5049004;28;20040;-75
2022/03/09 09:26:48;;;;;;;18.52;16.75;;;;;;;;;;5030428;28;20032;-75
2022/03/09 09:29:15;;;;;;;18.50;16.80;;;;;;;;;;5055514;28;20459;-75
2022/03/09 09:31:41;;;;;;;20.55;18.42;;;;;;;;;;5048795;28;20073;-75
2022/03/09 09:34:08;;;;;;;20.85;18.75;;;;;;;;;;5046963;28;20028;-75
2022/03/09 09:36:35;;;;;;;21.40;19.30;;;;;;;;;;5036068;28;20667;-75
2022/03/09 09:39:00;;;;;;;19.50;17.42;;;;;;;;;;5049406;28;20069;-75
2022/03/09 09:41:27;;;;;;;22.52;19.10;;;;;;;;;;5049003;28;20075;-75
2022/03/09 09:43:53;;;;;;;19.80;17.67;;;;;;;;;;5050604;28;20067;-75
2022/03/09 09:46:19;;;;;;;19.02;17.20;;;;;;;;;;5053741;28;20370;-75
2022/03/09 09:48:45;;;;;;;19.83;17.83;;;;;;;;;;5051175;28;20513;-75
2022/03/09 09:51:12;;;;;;;18.90;17.10;;;;;;;;;;5036842;28;20041;-74
2022/03/09 09:53:44;;;;;;;20.17;16.92;;;;;;;;;;5048302;28;20032;-74
2022/03/09 09:56:13;;;;;;;20.30;17.17;;;;;;;;;;5049976;28;20094;-75
2022/03/09 09:58:44;;;;;;;21.90;19.77;;;;;;;;;;5023591;28;20036;-74
2022/03/09 10:01:11;;;;;;;20.17;18.00;;;;;;;;;;5051674;28;20039;-76
2022/03/09 10:03:37;;;;;;;19.48;17.38;;;;;;;;;;5047650;28;20040;-76
2022/03/09 10:06:03;;;;;;;20.27;17.52;;;;;;;;;;5048149;28;20063;-78
2022/03/09 10:08:28;;;;;;;20.63;17.65;;;;;;;;;;5050891;28;20032;-76
2022/03/09 10:11:03;;;;;;;20.23;16.67;;;;;;;;;;5049690;28;20484;-76
2022/03/09 10:13:39;;;;;;;18.50;16.60;;;;;;;;;;5033905;28;20041;-73
2022/03/09 10:16:20;;;;;;;20.00;18.15;;;;;;;;;;5051761;28;20090;-74
2022/03/09 10:18:56;;;;;;;19.95;17.98;;;;;;;;;;5053513;28;20131;-75
2022/03/09 10:21:25;;;;;;;19.45;17.33;;;;;;;;;;5047792;28;20056;-76
2022/03/09 10:23:54;;;;;;;20.10;18.05;;;;;;;;;;5029497;28;20280;-75
2022/03/09 10:26:21;;;;;;;19.75;17.60;;;;;;;;;;5052603;28;20025;-74
2022/03/09 10:29:21;;;;;;;19.15;17.30;;;;;;;;;;5042155;28;20297;-74
2022/03/09 10:31:49;;;;;;;18.40;16.70;;;;;;;;;;5049591;28;20472;-74
2022/03/09 10:34:19;;;;;;;21.55;18.00;;;;;;;;;;5048239;28;20396;-73
2022/03/09 10:37:01;;;;;;;19.55;17.65;;;;;;;;;;5049413;28;20052;-74
2022/03/09 10:39:34;;;;;;;18.05;16.35;;;;;;;;;;5049066;28;20049;-73
2022/03/09 10:42:01;;;;;;;21.52;17.40;;;;;;;;;;5048179;28;20072;-73
2022/03/09 10:44:46;;;;;;;21.23;17.58;;;;;;;;;;5048187;28;20048;-73
2022/03/09 10:47:28;;;;;;;20.35;18.10;;;;;;;;;;5045792;28;20060;-76
2022/03/09 10:50:06;;;;;;;27.33;21.38;;;;;;;;;;5049789;28;20047;-73
2022/03/09 10:52:51;;;;;;;21.17;18.15;;;;;;;;;;5048574;28;20086;-74
2022/03/09 10:55:25;;;;;;;26.35;20.67;;;;;;;;;;5046806;28;20484;-76
2022/03/09 10:58:11;;;;;;;23.65;19.38;;;;;;;;;;5055715;28;20045;-74
2022/03/09 11:00:41;;;;;;;51.45;37.20;;;;;;;;;;5021759;28;20569;-73
2022/03/09 11:03:12;;;;;;;21.80;19.50;;;;;;;;;;5056227;28;20314;-74
2022/03/09 11:05:56;;;;;;;21.00;18.67;;;;;;;;;;5052825;28;20051;-76
2022/03/09 11:08:34;;;;;;;31.52;23.25;;;;;;;;;;5033762;28;20045;-75
2022/03/09 11:11:00;;;;;;;39.08;25.65;;;;;;;;;;5029955;28;20358;-76
2022/03/09 11:13:28;;;;;;;26.17;21.35;;;;;;;;;;5029714;28;20040;-76
2022/03/09 11:15:54;;;;;;;26.02;22.00;;;;;;;;;;5031629;28;20116;-75
2022/03/09 11:18:24;;;;;;;21.52;19.23;;;;;;;;;;5055623;28;20522;-75
2022/03/09 11:20:55;;;;;;;25.80;21.33;;;;;;;;;;5047000;28;20033;-75
2022/03/09 11:23:22;;;;;;;23.77;20.90;;;;;;;;;;5046128;28;20423;-75
2022/03/09 11:26:06;;;;;;;23.33;20.27;;;;;;;;;;5057255;28;20047;-76
2022/03/09 11:28:34;;;;;;;22.63;19.42;;;;;;;;;;5028583;28;20041;-75
2022/03/09 11:31:04;;;;;;;21.77;19.40;;;;;;;;;;5050966;28;20036;-76
2022/03/09 11:33:51;;;;;;;21.58;19.38;;;;;;;;;;5035045;28;20086;-74
2022/03/09 11:36:23;;;;;;;25.83;21.83;;;;;;;;;;5056325;28;20090;-75
2022/03/09 11:38:53;;;;;;;25.42;21.02;;;;;;;;;;5051325;28;20200;-76
2022/03/09 11:41:27;;;;;;;27.88;21.73;;;;;;;;;;5031768;28;20116;-73
2022/03/09 11:43:54;;;;;;;28.50;23.15;;;;;;;;;;5066280;28;20033;-73
2022/03/09 11:46:21;;;;;;;26.55;22.98;;;;;;;;;;5051191;28;20116;-76
2022/03/09 11:48:54;;;;;;;28.90;23.60;;;;;;;;;;5053053;28;20471;-74
2022/03/09 11:51:22;;;;;;;28.95;21.85;;;;;;;;;;5041993;28;20402;-75
2022/03/09 11:53:56;;;;;;;27.75;23.95;;;;;;;;;;5060122;28;20438;-75
2022/03/09 11:56:25;;;;;;;26.23;20.77;;;;;;;;;;5030532;28;20190;-75
2022/03/09 11:59:20;;;;;;;24.80;21.47;;;;;;;;;;5049040;28;20041;-76
2022/03/09 12:01:57;;;;;;;22.35;20.02;;;;;;;;;;5060054;28;20029;-73
2022/03/09 12:04:54;;;;;;;25.70;20.35;;;;;;;;;;5014111;28;20377;-74
2022/03/09 12:07:33;;;;;;;22.88;20.20;;;;;;;;;;5046720;28;20131;-74
2022/03/09 12:10:07;;;;;;;24.35;20.33;;;;;;;;;;5033488;28;20462;-75
2022/03/09 12:12:35;;;;;;;22.63;20.02;;;;;;;;;;5050379;28;20419;-75
2022/03/09 12:15:09;;;;;;;21.70;19.13;;;;;;;;;;5048026;28;20033;-76
2022/03/09 12:17:49;;;;;;;24.17;19.52;;;;;;;;;;5057220;28;20033;-76
2022/03/09 12:20:21;;;;;;;21.05;18.85;;;;;;;;;;5049718;28;20522;-75
2022/03/09 12:23:01;;;;;;;22.52;18.42;;;;;;;;;;5049756;28;20041;-75
2022/03/09 12:25:43;;;;;;;23.90;20.13;;;;;;;;;;5056318;28;20480;-75
2022/03/09 12:28:25;;;;;;;24.25;20.42;;;;;;;;;;5048937;28;20036;-75
2022/03/09 12:31:16;;;;;;;22.58;19.98;;;;;;;;;;5050175;28;20043;-75
2022/03/09 12:33:43;;;;;;;26.25;21.00;;;;;;;;;;5051597;28;20029;-75
2022/03/09 12:36:34;;;;;;;24.33;21.80;;;;;;;;;;5051735;28;20037;-74
2022/03/09 12:39:04;;;;;;;22.80;20.05;;;;;;;;;;5046833;28;20049;-74
2022/03/09 12:41:40;;;;;;;27.55;20.42;;;;;;;;;;5042700;28;20296;-75
2022/03/09 12:44:07;;;;;;;25.02;21.77;;;;;;;;;;5058363;28;20032;-74
2022/03/09 12:46:35;;;;;;;24.85;20.45;;;;;;;;;;5049890;28;20044;-76
2022/03/09 12:49:07;;;;;;;24.65;20.77;;;;;;;;;;5031621;28;20067;-76
2022/03/09 12:51:33;;;;;;;22.73;20.33;;;;;;;;;;5050027;28;20519;-75
2022/03/09 12:53:59;;;;;;;22.33;19.70;;;;;;;;;;5055063;28;20036;-74
2022/03/09 12:56:28;;;;;;;23.10;20.58;;;;;;;;;;5048988;28;20032;-76
2022/03/09 12:59:08;;;;;;;23.50;20.53;;;;;;;;;;5050170;28;20040;-76
2022/03/09 13:01:33;;;;;;;23.17;20.50;;;;;;;;;;5062857;28;20287;-74
2022/03/09 13:04:02;;;;;;;25.73;21.00;;;;;;;;;;5056539;28;20543;-74
2022/03/09 13:06:36;;;;;;;25.50;20.87;;;;;;;;;;5057227;28;20087;-75
2022/03/09 13:09:05;;;;;;;24.00;20.63;;;;;;;;;;5055890;28;20365;-75
2022/03/09 13:11:36;;;;;;;21.02;18.90;;;;;;;;;;5067504;28;20037;-75
2022/03/09 13:14:19;;;;;;;20.38;18.27;;;;;;;;;;5050575;28;20041;-75
2022/03/09 13:16:45;;;;;;;31.00;23.90;;;;;;;;;;5049036;28;20094;-74
2022/03/09 13:19:12;;;;;;;19.60;17.80;;;;;;;;;;5044013;28;20622;-75
2022/03/09 13:21:38;;;;;;;18.65;16.80;;;;;;;;;;5049431;28;20041;-75
2022/03/09 13:24:05;;;;;;;20.23;18.38;;;;;;;;;;5031295;28;20463;-75
2022/03/09 13:26:41;;;;;;;19.30;16.85;;;;;;;;;;5048565;28;20053;-75
2022/03/09 13:29:21;;;;;;;19.25;17.55;;;;;;;;;;5050493;28;20495;-75
2022/03/09 13:31:49;;;;;;;19.75;17.42;;;;;;;;;;5052028;28;20033;-75
2022/03/09 13:34:14;;;;;;;19.33;17.52;;;;;;;;;;5030984;28;20400;-75
2022/03/09 13:36:41;;;;;;;20.30;18.25;;;;;;;;;;5045617;28;20534;-74
2022/03/09 13:39:06;;;;;;;19.27;17.60;;;;;;;;;;5052912;28;20119;-75
2022/03/09 13:41:42;;;;;;;18.20;16.50;;;;;;;;;;5048835;28;20279;-75
2022/03/09 13:44:28;;;;;;;18.25;16.50;;;;;;;;;;5049031;28;20036;-75
2022/03/09 13:47:04;;;;;;;18.13;16.48;;;;;;;;;;5044622;28;20049;-75
2022/03/09 13:49:50;;;;;;;17.85;16.23;;;;;;;;;;5047345;28;20381;-74
2022/03/09 13:52:33;;;;;;;19.50;17.77;;;;;;;;;;5023722;28;20041;-75
2022/03/09 13:55:00;;;;;;;18.70;17.00;;;;;;;;;;5046889;28;20116;-75
2022/03/09 13:57:34;;;;;;;18.58;16.73;;;;;;;;;;5050035;28;20070;-75
2022/03/09 14:00:03;;;;;;;19.80;17.88;;;;;;;;;;5030386;28;20052;-74
2022/03/09 14:02:30;;;;;;;19.10;17.30;;;;;;;;;;5054478;28;20408;-74
2022/03/09 14:04:56;;;;;;;19.17;17.27;;;;;;;;;;5011131;28;20033;-74
2022/03/09 14:07:22;;;;;;;19.23;17.42;;;;;;;;;;5047791;28;20390;-75
2022/03/09 14:10:21;;;;;;;19.70;17.90;;;;;;;;;;5048085;28;20108;-74
2022/03/09 14:12:46;;;;;;;18.83;17.05;;;;;;;;;;5046087;28;20435;-74
2022/03/09 14:15:13;;;;;;;18.77;17.08;;;;;;;;;;5027228;28;20473;-72
2022/03/09 14:17:39;;;;;;;17.85;16.25;;;;;;;;;;5049624;28;20048;-73
2022/03/09 14:20:09;;;;;;;19.00;17.13;;;;;;;;;;5032961;28;20407;-73
2022/03/09 14:22:41;;;;;;;;;;;;;;;;;;5045766;28;20371;-74
2022/03/09 14:25:07;;;;;;;18.67;16.83;;;;;;;;;;5050215;28;19974;-74
2022/03/09 14:27:33;;;;;;;18.02;16.30;;;;;;;;;;5046004;28;20055;-74
2022/03/09 14:29:58;;;;;;;19.55;17.48;;;;;;;;;;5046298;28;20399;-74
2022/03/09 14:32:24;;;;;;;19.23;17.38;;;;;;;;;;5045294;28;20090;-74
2022/03/09 14:34:50;;;;;;;18.67;16.98;;;;;;;;;;5052323;28;20277;-72
2022/03/09 14:37:15;;;;;;;18.45;16.75;;;;;;;;;;5046030;28;20048;-73
2022/03/09 14:39:41;;;;;;;20.30;17.98;;;;;;;;;;5046569;28;20399;-73
2022/03/09 14:42:07;;;;;;;18.42;16.65;;;;;;;;;;5034513;28;20045;-75
2022/03/09 14:44:32;;;;;;;19.02;17.10;;;;;;;;;;5049008;28;20154;-75
2022/03/09 14:46:58;;;;;;;18.23;16.48;;;;;;;;;;5031523;28;20086;-75
2022/03/09 14:49:24;;;;;;;18.40;16.50;;;;;;;;;;5051819;28;20078;-76
2022/03/09 14:51:51;;;;;;;19.35;17.27;;;;;;;;;;5058074;28;20044;-77
2022/03/09 14:54:19;;;;;;;20.02;17.90;;;;;;;;;;5055930;28;20068;-76
2022/03/09 14:56:45;;;;;;;19.67;17.50;;;;;;;;;;5028894;28;20041;-78
2022/03/09 14:59:11;;;;;;;19.13;17.02;;;;;;;;;;5046514;28;20361;-76
2022/03/09 15:01:36;;;;;;;19.65;17.55;;;;;;;;;;5057618;28;20091;-76
2022/03/09 15:04:02;;;;;;;19.05;17.15;;;;;;;;;;5050399;28;20049;-76
2022/03/09 15:06:29;;;;;;;18.88;17.05;;;;;;;;;;5048653;28;20605;-78
2022/03/09 15:08:55;;;;;;;22.48;18.17;;;;;;;;;;5051367;28;20091;-75
2022/03/09 15:11:21;;;;;;;21.17;18.05;;;;;;;;;;5055715;28;20132;-76
2022/03/09 15:13:47;;;;;;;20.77;18.70;;;;;;;;;;5049640;28;20052;-76
2022/03/09 15:16:14;;;;;;;19.75;17.60;;;;;;;;;;5030558;28;20044;-76
2022/03/09 15:18:39;;;;;;;20.90;17.10;;;;;;;;;;5054773;28;20041;-76
2022/03/09 15:21:07;;;;;;;20.17;17.83;;;;;;;;;;5042780;28;20051;-76
2022/03/09 15:23:32;;;;;;;25.95;18.60;;;;;;;;;;5049719;28;20472;-77
2022/03/09 15:25:58;;;;;;;21.25;18.52;;;;;;;;;;5032728;28;20090;-76
2022/03/09 15:28:24;;;;;;;21.92;18.10;;;;;;;;;;5032189;28;20087;-78
2022/03/09 15:30:49;;;;;;;22.23;18.90;;;;;;;;;;5049285;28;20488;-75
2022/03/09 15:33:15;;;;;;;22.95;18.83;;;;;;;;;;5048589;28;20036;-77
2022/03/09 15:35:41;;;;;;;20.40;18.30;;;;;;;;;;5057497;28;20572;-76
2022/03/09 15:38:06;;;;;;;21.00;18.75;;;;;;;;;;5049557;28;20043;-76
2022/03/09 15:40:32;;;;;;;26.38;20.30;;;;;;;;;;5049516;28;20065;-77
2022/03/09 15:42:57;;;;;;;24.00;19.48;;;;;;;;;;5052614;28;20471;-76
2022/03/09 15:45:23;;;;;;;25.88;20.45;;;;;;;;;;5055542;28;20043;-75
2022/03/09 15:47:49;;;;;;;25.02;19.92;;;;;;;;;;5053812;28;20427;-77